createdAt,value
2022-07-31T00:02:00.322Z,39.12
2022-07-31T00:04:12.928Z,39.14
2022-07-31T00:06:24.741Z,39.17
2022-07-31T00:08:34.856Z,39.20
2022-07-31T00:10:58.653Z,39.23
2022-07-31T00:13:11.916Z,39.23
2022-07-31T00:15:27.901Z,39.24
2022-07-31T00:18:10.853Z,39.26
2022-07-31T00:20:32.783Z,39.26
2022-07-31T00:23:03.219Z,39.26
2022-07-31T00:25:34.410Z,39.26
2022-07-31T00:28:34.181Z,39.24
2022-07-31T00:31:30.612Z,39.22
2022-07-31T00:33:49.453Z,39.22
2022-07-31T00:36:15.478Z,39.21
2022-07-31T00:38:52.413Z,39.18
2022-07-31T00:41:47.790Z,39.17
2022-07-31T00:44:56.341Z,39.16
2022-07-31T00:47:48.334Z,39.15
2022-07-31T00:50:18.778Z,39.16
2022-07-31T00:53:00.136Z,39.14
2022-07-31T00:55:51.104Z,39.11
2022-07-31T00:58:23.829Z,39.09
2022-07-31T01:00:59.086Z,39.08
2022-07-31T01:03:57.285Z,39.07
2022-07-31T01:06:42.654Z,39.04
2022-07-31T01:09:03.112Z,39.03
2022-07-31T01:11:59.070Z,39.03
2022-07-31T01:14:51.709Z,39.01
2022-07-31T01:18:00.764Z,38.96
2022-07-31T01:21:18.966Z,38.90
2022-07-31T01:24:26.560Z,38.84
2022-07-31T01:27:58.047Z,38.78
2022-07-31T01:30:14.252Z,38.71
2022-07-31T01:32:58.664Z,38.67
2022-07-31T01:35:34.168Z,38.62
2022-07-31T01:38:31.172Z,38.56
2022-07-31T01:41:08.046Z,38.49
2022-07-31T01:43:55.418Z,38.44
2022-07-31T01:46:52.216Z,38.36
2022-07-31T01:49:36.876Z,38.29
2022-07-31T01:52:29.729Z,38.22
2022-07-31T01:54:55.306Z,38.12
2022-07-31T01:57:22.636Z,38.05
2022-07-31T02:00:04.056Z,37.98
2022-07-31T02:02:43.170Z,37.92
2022-07-31T02:05:27.109Z,37.85
2022-07-31T02:08:00.449Z,37.80
2022-07-31T02:10:38.614Z,37.73
2022-07-31T02:13:12.380Z,37.67
2022-07-31T02:16:29.433Z,37.60
2022-07-31T02:19:17.742Z,37.51
2022-07-31T02:21:50.722Z,37.44
2022-07-31T02:24:27.469Z,37.36
2022-07-31T02:27:57.230Z,37.28
2022-07-31T02:30:58.228Z,37.18
2022-07-31T02:33:37.903Z,37.10
2022-07-31T02:36:35.410Z,37.06
2022-07-31T02:38:56.283Z,37.00
2022-07-31T02:41:34.390Z,36.96
2022-07-31T02:44:12.701Z,36.90
2022-07-31T02:46:29.222Z,36.82
2022-07-31T02:49:03.141Z,36.78
2022-07-31T02:51:42.849Z,36.72
2022-07-31T02:54:03.269Z,36.66
2022-07-31T02:56:50.343Z,36.59
2022-07-31T02:59:42.241Z,36.53
2022-07-31T03:02:39.435Z,36.44
2022-07-31T03:05:40.414Z,36.36
2022-07-31T03:08:10.615Z,36.26
2022-07-31T03:11:26.610Z,36.18
2022-07-31T03:14:18.779Z,36.05
2022-07-31T03:17:17.547Z,36.00
2022-07-31T03:19:48.150Z,35.92
2022-07-31T03:22:18.445Z,35.84
2022-07-31T03:24:36.896Z,35.79
2022-07-31T03:26:55.157Z,35.72
2022-07-31T03:29:58.360Z,35.67
2022-07-31T03:33:05.266Z,35.59
2022-07-31T03:35:32.601Z,35.50
2022-07-31T03:38:41.249Z,35.43
2022-07-31T03:41:04.186Z,35.34
2022-07-31T03:44:14.349Z,35.26
2022-07-31T03:47:25.518Z,35.17
2022-07-31T03:50:42.320Z,35.07
2022-07-31T03:53:16.129Z,34.96
2022-07-31T03:56:06.517Z,34.86
2022-07-31T03:58:30.395Z,34.77
2022-07-31T04:00:47.306Z,34.70
2022-07-31T04:03:15.312Z,34.63
2022-07-31T04:06:19.612Z,34.55
2022-07-31T04:09:15.346Z,34.45
2022-07-31T04:11:51.377Z,34.35
2022-07-31T04:14:40.054Z,34.29
2022-07-31T04:17:10.443Z,34.21
2022-07-31T04:19:42.532Z,34.13
2022-07-31T04:21:59.136Z,34.04
2022-07-31T04:24:30.405Z,33.95
2022-07-31T04:27:29.497Z,33.82
2022-07-31T04:30:02.076Z,33.65
2022-07-31T04:33:05.264Z,33.45
2022-07-31T04:35:31.472Z,33.29
2022-07-31T04:38:17.874Z,33.18
2022-07-31T04:41:12.290Z,33.07
2022-07-31T04:43:43.382Z,32.99
2022-07-31T04:46:50.390Z,32.90
2022-07-31T04:49:53.790Z,32.86
2022-07-31T04:52:51.368Z,32.79
2022-07-31T04:55:28.297Z,32.73
2022-07-31T04:57:47.084Z,32.68
2022-07-31T05:00:31.164Z,32.63
2022-07-31T05:02:43.368Z,32.57
2022-07-31T05:05:42.230Z,32.51
2022-07-31T05:08:59.927Z,32.45
2022-07-31T05:12:19.354Z,32.36
2022-07-31T05:15:26.434Z,32.26
2022-07-31T05:18:44.055Z,32.20
2022-07-31T05:21:18.101Z,32.12
2022-07-31T05:23:59.537Z,32.07
2022-07-31T05:26:45.574Z,32.01
2022-07-31T05:29:27.127Z,31.94
2022-07-31T05:32:01.835Z,31.86
2022-07-31T05:34:21.865Z,31.77
2022-07-31T05:36:34.186Z,31.70
2022-07-31T05:39:03.483Z,31.62
2022-07-31T05:42:15.094Z,31.52
2022-07-31T05:45:23.685Z,31.33
2022-07-31T05:47:46.326Z,31.17
2022-07-31T05:50:11.825Z,31.07
2022-07-31T05:52:50.506Z,30.99
2022-07-31T05:55:17.394Z,30.91
2022-07-31T05:58:41.264Z,30.85
2022-07-31T06:01:32.233Z,30.78
2022-07-31T06:04:44.898Z,30.71
2022-07-31T06:07:05.508Z,30.63
2022-07-31T06:09:45.403Z,30.54
2022-07-31T06:12:35.553Z,30.45
2022-07-31T06:15:02.809Z,30.37
2022-07-31T06:17:45.230Z,30.29
2022-07-31T06:20:53.941Z,30.18
2022-07-31T06:23:34.577Z,30.10
2022-07-31T06:26:29.516Z,30.04
2022-07-31T06:29:19.230Z,30.00
2022-07-31T06:32:30.565Z,29.96
2022-07-31T06:35:47.857Z,29.91
2022-07-31T06:39:00.876Z,29.84
2022-07-31T06:42:10.847Z,29.77
2022-07-31T06:44:18.887Z,29.71
2022-07-31T06:47:04.333Z,29.66
2022-07-31T06:49:53.832Z,29.62
2022-07-31T06:52:46.659Z,29.57
2022-07-31T06:55:29.163Z,29.50
2022-07-31T06:57:54.511Z,29.44
2022-07-31T07:00:19.638Z,29.37
2022-07-31T07:03:05.193Z,29.32
2022-07-31T07:05:29.365Z,29.26
2022-07-31T07:07:57.715Z,29.21
2022-07-31T07:10:45.783Z,29.16
2022-07-31T07:13:54.893Z,29.09
2022-07-31T07:17:02.941Z,29.04
2022-07-31T07:19:25.058Z,28.97
2022-07-31T07:22:03.573Z,28.90
2022-07-31T07:25:03.986Z,28.82
2022-07-31T07:27:54.918Z,28.75
2022-07-31T07:30:23.062Z,28.69
2022-07-31T07:33:14.412Z,28.65
2022-07-31T07:35:51.678Z,28.60
2022-07-31T07:38:22.248Z,28.56
2022-07-31T07:41:18.507Z,28.52
2022-07-31T07:43:41.989Z,28.45
2022-07-31T07:47:06.297Z,28.39
2022-07-31T07:49:44.532Z,28.30
2022-07-31T07:52:56.934Z,28.22
2022-07-31T07:55:48.431Z,28.14
2022-07-31T07:58:20.454Z,28.09
2022-07-31T08:01:08.201Z,28.06
2022-07-31T08:03:49.171Z,28.03
2022-07-31T08:06:10.324Z,27.98
2022-07-31T08:09:21.890Z,27.92
2022-07-31T08:12:22.909Z,27.85
2022-07-31T08:15:41.299Z,27.77
2022-07-31T08:18:28.469Z,27.70
2022-07-31T08:21:28.043Z,27.61
2022-07-31T08:23:58.113Z,27.50
2022-07-31T08:26:38.406Z,27.43
2022-07-31T08:29:09.361Z,27.35
2022-07-31T08:31:38.290Z,27.27
2022-07-31T08:34:09.880Z,27.20
2022-07-31T08:37:51.760Z,27.14
2022-07-31T08:40:42.981Z,27.06
2022-07-31T08:44:01.963Z,26.99
2022-07-31T08:46:26.424Z,26.91
2022-07-31T08:49:21.943Z,26.86
2022-07-31T08:51:51.576Z,26.79
2022-07-31T08:54:31.210Z,26.75
2022-07-31T08:56:44.640Z,26.72
2022-07-31T08:59:24.408Z,26.70
2022-07-31T09:02:08.346Z,26.66
2022-07-31T09:04:36.307Z,26.63
2022-07-31T09:07:46.469Z,26.57
2022-07-31T09:11:06.059Z,26.49
2022-07-31T09:14:23.268Z,26.42
2022-07-31T09:17:11.430Z,26.37
2022-07-31T09:20:08.141Z,26.33
2022-07-31T09:22:51.786Z,26.29
2022-07-31T09:25:41.686Z,26.26
2022-07-31T09:28:26.032Z,26.23
2022-07-31T09:31:29.931Z,26.18
2022-07-31T09:34:09.375Z,26.14
2022-07-31T09:36:33.683Z,26.11
2022-07-31T09:39:05.503Z,26.04
2022-07-31T09:42:00.885Z,26.01
2022-07-31T09:45:07.960Z,25.94
2022-07-31T09:47:50.945Z,25.88
2022-07-31T09:50:28.855Z,25.83
2022-07-31T09:53:07.723Z,25.78
2022-07-31T09:56:18.230Z,25.73
2022-07-31T09:58:59.215Z,25.65
2022-07-31T10:01:16.486Z,25.57
2022-07-31T10:03:51.447Z,25.50
2022-07-31T10:06:16.653Z,25.43
2022-07-31T10:08:48.963Z,25.37
2022-07-31T10:11:40.339Z,25.29
2022-07-31T10:14:43.342Z,25.22
2022-07-31T10:17:06.850Z,25.16
2022-07-31T10:20:23.969Z,25.09
2022-07-31T10:23:23.333Z,24.97
2022-07-31T10:27:01.923Z,24.89
2022-07-31T10:30:05.390Z,24.81
2022-07-31T10:32:52.170Z,24.74
2022-07-31T10:36:03.962Z,24.68
2022-07-31T10:39:16.605Z,24.65
2022-07-31T10:42:18.362Z,24.59
2022-07-31T10:44:56.017Z,24.53
2022-07-31T10:47:31.685Z,24.49
2022-07-31T10:50:55.082Z,24.43
2022-07-31T10:53:51.251Z,24.36
2022-07-31T10:56:57.655Z,24.29
2022-07-31T10:59:53.334Z,24.21
2022-07-31T11:02:47.540Z,24.16
2022-07-31T11:06:02.427Z,24.10
2022-07-31T11:08:31.033Z,24.06
2022-07-31T11:11:03.536Z,24.03
2022-07-31T11:14:16.358Z,24.02
2022-07-31T11:16:58.537Z,23.98
2022-07-31T11:20:03.425Z,23.95
2022-07-31T11:22:32.034Z,23.92
2022-07-31T11:25:41.676Z,23.89
2022-07-31T11:28:20.005Z,23.86
2022-07-31T11:31:10.998Z,23.84
2022-07-31T11:34:27.208Z,23.81
2022-07-31T11:37:18.232Z,23.77
2022-07-31T11:40:04.468Z,23.71
2022-07-31T11:43:23.147Z,23.65
2022-07-31T11:45:46.433Z,23.59
2022-07-31T11:48:43.502Z,23.54
2022-07-31T11:50:56.259Z,23.47
2022-07-31T11:53:32.311Z,23.41
2022-07-31T11:56:15.508Z,23.35
2022-07-31T11:58:48.995Z,23.27
2022-07-31T12:01:28.211Z,23.21
2022-07-31T12:04:12.092Z,23.16
2022-07-31T12:07:09.716Z,23.11
2022-07-31T12:10:00.512Z,23.07
2022-07-31T12:12:28.943Z,23.04
2022-07-31T12:15:10.889Z,23.01
2022-07-31T12:18:14.082Z,22.96
2022-07-31T12:21:03.508Z,22.90
2022-07-31T12:23:42.908Z,22.85
2022-07-31T12:26:02.811Z,22.81
2022-07-31T12:28:52.685Z,22.78
2022-07-31T12:31:36.199Z,22.74
2022-07-31T12:33:59.861Z,22.69
2022-07-31T12:36:30.502Z,22.65
2022-07-31T12:39:03.495Z,22.60
2022-07-31T12:41:50.659Z,22.57
2022-07-31T12:44:25.097Z,22.54
2022-07-31T12:47:13.124Z,22.52
2022-07-31T12:49:40.897Z,22.49
2022-07-31T12:52:50.893Z,22.48
2022-07-31T12:55:20.941Z,22.46
2022-07-31T12:57:56.146Z,22.44
2022-07-31T13:00:24.894Z,22.43
2022-07-31T13:02:40.843Z,22.40
2022-07-31T13:05:24.983Z,22.38
2022-07-31T13:07:47.006Z,22.36
2022-07-31T13:10:18.920Z,22.35
2022-07-31T13:12:37.293Z,22.34
2022-07-31T13:14:50.064Z,22.34
2022-07-31T13:17:39.872Z,22.31
2022-07-31T13:20:21.382Z,22.29
2022-07-31T13:23:05.483Z,22.27
2022-07-31T13:25:32.987Z,22.26
2022-07-31T13:28:39.569Z,22.24
2022-07-31T13:31:07.182Z,22.22
2022-07-31T13:33:20.668Z,22.21
2022-07-31T13:35:47.310Z,22.22
2022-07-31T13:38:03.508Z,22.21
2022-07-31T13:40:16.626Z,22.21
2022-07-31T13:42:43.263Z,22.22
2022-07-31T13:44:59.850Z,22.23
2022-07-31T13:47:50.727Z,22.23
2022-07-31T13:50:19.699Z,22.22
2022-07-31T13:53:00.014Z,22.21
2022-07-31T13:55:19.619Z,22.21
2022-07-31T13:57:40.305Z,22.21
2022-07-31T14:00:08.460Z,22.21
2022-07-31T14:02:45.593Z,22.21
2022-07-31T14:04:58.614Z,22.19
2022-07-31T14:07:12.997Z,22.20
2022-07-31T14:09:23.931Z,22.21
2022-07-31T14:12:25.242Z,22.23
2022-07-31T14:14:48.188Z,22.24
2022-07-31T14:17:29.073Z,22.27
2022-07-31T14:20:02.257Z,22.27
2022-07-31T14:22:32.484Z,22.28
2022-07-31T14:25:49.290Z,22.29
2022-07-31T14:28:28.622Z,22.29
2022-07-31T14:30:49.936Z,22.30
2022-07-31T14:33:43.909Z,22.30
2022-07-31T14:37:02.318Z,22.31
2022-07-31T14:39:33.639Z,22.30
2022-07-31T14:42:29.691Z,22.32
2022-07-31T14:45:11.235Z,22.37
2022-07-31T14:47:27.851Z,22.42
2022-07-31T14:50:11.991Z,22.46
2022-07-31T14:52:56.239Z,22.51
2022-07-31T14:55:27.608Z,22.54
2022-07-31T14:57:57.882Z,22.57
2022-07-31T15:00:26.809Z,22.59
2022-07-31T15:02:44.059Z,22.61
2022-07-31T15:06:41.091Z,22.63
2022-07-31T15:08:02.671Z,22.64
2022-07-31T15:10:21.053Z,22.67
2022-07-31T15:12:39.896Z,22.69
2022-07-31T15:15:10.501Z,22.72
2022-07-31T15:18:07.448Z,22.75
2022-07-31T15:21:16.178Z,22.79
2022-07-31T15:24:01.440Z,22.88
2022-07-31T15:26:20.436Z,22.92
2022-07-31T15:29:10.494Z,23.00
2022-07-31T15:31:40.940Z,23.09
2022-07-31T15:34:23.468Z,23.16
2022-07-31T15:37:30.633Z,23.27
2022-07-31T15:40:37.740Z,23.42
2022-07-31T15:43:36.332Z,23.49
2022-07-31T15:46:37.231Z,23.56
2022-07-31T15:49:05.417Z,23.68
2022-07-31T15:51:33.744Z,23.78
2022-07-31T15:54:51.992Z,23.89
2022-07-31T15:57:39.676Z,24.00
2022-07-31T16:00:34.149Z,24.07
2022-07-31T16:03:24.911Z,24.18
2022-07-31T16:06:35.643Z,24.36
2022-07-31T16:09:27.381Z,24.50
2022-07-31T16:12:08.940Z,24.66
2022-07-31T16:14:58.621Z,24.83
2022-07-31T16:18:02.052Z,24.98
2022-07-31T16:20:27.234Z,25.13
2022-07-31T16:23:20.588Z,25.24
2022-07-31T16:26:11.195Z,25.40
2022-07-31T16:29:17.506Z,25.51
2022-07-31T16:31:33.630Z,25.60
2022-07-31T16:35:01.635Z,25.64
2022-07-31T16:37:58.068Z,25.70
2022-07-31T16:40:57.282Z,25.83
2022-07-31T16:43:47.653Z,25.97
2022-07-31T16:46:07.363Z,26.16
2022-07-31T16:48:37.639Z,26.32
2022-07-31T16:51:34.938Z,26.52
2022-07-31T16:54:14.050Z,26.68
2022-07-31T16:56:46.832Z,26.82
2022-07-31T16:59:05.679Z,26.98
2022-07-31T17:02:02.294Z,27.11
2022-07-31T17:04:19.478Z,27.27
2022-07-31T17:06:40.696Z,27.38
2022-07-31T17:09:35.757Z,27.50
2022-07-31T17:11:51.645Z,27.57
2022-07-31T17:14:21.594Z,27.61
2022-07-31T17:16:48.028Z,27.67
2022-07-31T17:18:58.458Z,27.72
2022-07-31T17:21:15.145Z,27.78
2022-07-31T17:23:43.523Z,27.87
2022-07-31T17:26:04.985Z,27.92
2022-07-31T17:28:35.220Z,27.98
2022-07-31T17:31:07.741Z,28.06
2022-07-31T17:33:59.309Z,28.24
2022-07-31T17:36:12.093Z,28.37
2022-07-31T17:38:45.027Z,28.48
2022-07-31T17:41:28.097Z,28.57
2022-07-31T17:44:03.767Z,28.67
2022-07-31T17:46:48.830Z,28.81
2022-07-31T17:49:29.438Z,28.98
2022-07-31T17:52:21.920Z,29.15
2022-07-31T17:54:55.012Z,29.33
2022-07-31T17:57:35.005Z,29.50
2022-07-31T18:00:43.279Z,29.63
2022-07-31T18:03:26.727Z,29.79
2022-07-31T18:06:19.511Z,29.89
2022-07-31T18:09:20.125Z,30.01
2022-07-31T18:11:49.619Z,29.96
2022-07-31T18:14:30.060Z,29.86
2022-07-31T18:16:53.345Z,29.88
2022-07-31T18:19:50.072Z,29.94
2022-07-31T18:22:49.386Z,29.98
2022-07-31T18:25:47.041Z,30.10
2022-07-31T18:28:53.862Z,30.25
2022-07-31T18:32:05.072Z,30.39
2022-07-31T18:35:06.526Z,30.56
2022-07-31T18:37:28.927Z,30.65
2022-07-31T18:40:08.446Z,30.69
2022-07-31T18:42:58.534Z,30.76
2022-07-31T18:45:55.355Z,30.76
2022-07-31T18:48:09.105Z,30.74
2022-07-31T18:51:10.194Z,30.80
2022-07-31T18:53:22.723Z,30.92
2022-07-31T18:56:16.202Z,31.06
2022-07-31T18:59:13.383Z,31.21
2022-07-31T19:01:33.338Z,31.31
2022-07-31T19:04:13.409Z,31.30
2022-07-31T19:06:45.181Z,31.37
2022-07-31T19:08:54.952Z,31.48
2022-07-31T19:11:04.072Z,31.57
2022-07-31T19:13:34.185Z,31.63
2022-07-31T19:15:53.985Z,31.63
2022-07-31T19:18:21.805Z,31.72
2022-07-31T19:21:22.585Z,31.87
2022-07-31T19:24:24.396Z,32.07
2022-07-31T19:26:51.546Z,32.23
2022-07-31T19:29:31.965Z,32.33
2022-07-31T19:32:05.047Z,32.40
2022-07-31T19:34:38.388Z,32.42
2022-07-31T19:36:52.097Z,32.42
2022-07-31T19:39:39.916Z,32.47
2022-07-31T19:42:14.170Z,32.50
2022-07-31T19:45:20.710Z,32.55
2022-07-31T19:47:36.810Z,32.61
2022-07-31T19:50:19.144Z,32.63
2022-07-31T19:52:28.405Z,32.70
2022-07-31T19:54:49.597Z,32.71
2022-07-31T19:57:16.261Z,32.67
2022-07-31T19:59:38.416Z,32.66
2022-07-31T20:02:27.129Z,32.64
2022-07-31T20:05:42.555Z,32.68
2022-07-31T20:08:05.387Z,32.76
2022-07-31T20:10:28.230Z,32.83
2022-07-31T20:13:01.157Z,32.93
2022-07-31T20:15:51.537Z,33.07
2022-07-31T20:18:28.751Z,33.13
2022-07-31T20:21:46.094Z,33.20
2022-07-31T20:24:21.943Z,33.28
2022-07-31T20:26:51.084Z,33.20
2022-07-31T20:29:59.439Z,33.26
2022-07-31T20:32:17.388Z,33.25
2022-07-31T20:34:59.202Z,33.15
2022-07-31T20:38:06.577Z,33.14
2022-07-31T20:40:53.667Z,33.21
2022-07-31T20:44:04.586Z,33.30
2022-07-31T20:47:13.103Z,33.42
2022-07-31T20:50:03.400Z,33.45
2022-07-31T20:52:36.776Z,33.40
2022-07-31T20:54:52.914Z,33.51
2022-07-31T20:57:24.424Z,33.56
2022-07-31T21:00:32.121Z,33.61
2022-07-31T21:03:27.351Z,33.65
2022-07-31T21:06:18.250Z,33.67
2022-07-31T21:09:25.737Z,33.75
2022-07-31T21:11:56.501Z,33.85
2022-07-31T21:14:36.646Z,33.88
2022-07-31T21:17:36.063Z,33.93
2022-07-31T21:20:51.067Z,33.99
2022-07-31T21:23:17.496Z,34.05
2022-07-31T21:26:33.853Z,34.11
2022-07-31T21:28:58.457Z,34.19
2022-07-31T21:31:59.301Z,34.27
2022-07-31T21:34:19.389Z,34.34
2022-07-31T21:36:55.006Z,34.43
2022-07-31T21:40:02.313Z,34.55
2022-07-31T21:42:21.995Z,34.62
2022-07-31T21:45:50.583Z,34.67
2022-07-31T21:48:28.278Z,34.76
2022-07-31T21:51:15.817Z,34.81
2022-07-31T21:54:22.180Z,34.93
2022-07-31T21:57:13.249Z,35.03
2022-07-31T21:59:37.569Z,35.07
2022-07-31T22:02:17.366Z,35.08
2022-07-31T22:04:54.376Z,35.09
2022-07-31T22:08:01.151Z,35.13
2022-07-31T22:10:44.857Z,35.19
2022-07-31T22:13:08.757Z,35.28
2022-07-31T22:15:58.906Z,35.41
2022-07-31T22:18:50.620Z,35.51
2022-07-31T22:21:45.964Z,35.60
2022-07-31T22:23:59.247Z,35.69
2022-07-31T22:27:11.811Z,35.73
2022-07-31T22:29:52.130Z,35.72
2022-07-31T22:32:07.711Z,35.76
2022-07-31T22:34:48.829Z,35.79
2022-07-31T22:37:42.657Z,35.94
2022-07-31T22:40:06.925Z,36.08
2022-07-31T22:42:56.258Z,36.20
2022-07-31T22:45:18.713Z,36.38
2022-07-31T22:48:09.767Z,36.48
2022-07-31T22:50:59.006Z,36.59
2022-07-31T22:53:40.109Z,36.69
2022-07-31T22:56:35.653Z,36.75
2022-07-31T22:58:53.325Z,36.81
2022-07-31T23:01:15.430Z,36.88
2022-07-31T23:03:55.399Z,36.95
2022-07-31T23:06:32.731Z,37.02
2022-07-31T23:08:43.678Z,37.06
2022-07-31T23:10:53.367Z,37.10
2022-07-31T23:13:03.154Z,37.15
2022-07-31T23:15:09.941Z,37.19
2022-07-31T23:17:23.073Z,37.25
2022-07-31T23:19:31.453Z,37.32
2022-07-31T23:21:37.812Z,37.38
2022-07-31T23:24:19.307Z,37.43
2022-07-31T23:26:36.625Z,37.48
2022-07-31T23:28:46.205Z,37.53
2022-07-31T23:31:37.346Z,37.56
2022-07-31T23:34:21.931Z,37.59
2022-07-31T23:37:10.486Z,37.59
2022-07-31T23:39:27.393Z,37.60
2022-07-31T23:42:35.229Z,37.61
2022-07-31T23:44:42.660Z,37.63
2022-07-31T23:46:59.000Z,37.63
2022-07-31T23:49:27.993Z,37.65
2022-07-31T23:51:54.528Z,37.67
2022-07-31T23:54:10.437Z,37.70
2022-07-31T23:56:35.120Z,37.72
2022-07-31T23:59:29.168Z,37.73
